sensor_id;sensor_type;location;lat;lon;timestamp;pressure;altitude;pressure_sealevel;temperature;humidity
37020;BME280;22932;52.442;16.896;2022-09-12T00:00:42;100504.41;;;11.95;81.94
37020;BME280;22932;52.442;16.896;2022-09-12T00:03:10;100504.85;;;11.92;81.83
37020;BME280;22932;52.442;16.896;2022-09-12T00:05:41;100500.77;;;11.91;81.97
37020;BME280;22932;52.442;16.896;2022-09-12T00:08:10;100505.23;;;11.92;82.10
37020;BME280;22932;52.442;16.896;2022-09-12T00:10:38;100503.48;;;11.93;81.97
37020;BME280;22932;52.442;16.896;2022-09-12T00:13:05;100504.94;;;11.93;81.89
37020;BME280;22932;52.442;16.896;2022-09-12T00:15:37;100502.21;;;11.95;82.00
37020;BME280;22932;52.442;16.896;2022-09-12T00:18:06;100501.52;;;11.95;81.76
37020;BME280;22932;52.442;16.896;2022-09-12T00:20:34;100500.78;;;11.95;81.90
37020;BME280;22932;52.442;16.896;2022-09-12T00:23:01;100500.95;;;11.95;81.63
37020;BME280;22932;52.442;16.896;2022-09-12T00:25:29;100496.31;;;11.93;81.78
37020;BME280;22932;52.442;16.896;2022-09-12T00:27:57;100496.30;;;11.91;81.77
37020;BME280;22932;52.442;16.896;2022-09-12T00:30:24;100497.02;;;11.89;81.74
37020;BME280;22932;52.442;16.896;2022-09-12T00:32:52;100498.95;;;11.86;81.80
37020;BME280;22932;52.442;16.896;2022-09-12T00:35:20;100496.10;;;11.81;81.59
37020;BME280;22932;52.442;16.896;2022-09-12T00:37:47;100500.02;;;11.76;81.87
37020;BME280;22932;52.442;16.896;2022-09-12T00:40:15;100497.13;;;11.73;81.96
37020;BME280;22932;52.442;16.896;2022-09-12T00:42:42;100500.61;;;11.70;82.06
37020;BME280;22932;52.442;16.896;2022-09-12T00:45:19;100498.87;;;11.67;82.01
37020;BME280;22932;52.442;16.896;2022-09-12T00:47:49;100500.33;;;11.63;82.24
37020;BME280;22932;52.442;16.896;2022-09-12T00:50:17;100502.40;;;11.60;82.27
37020;BME280;22932;52.442;16.896;2022-09-12T00:52:48;100498.89;;;11.59;82.41
37020;BME280;22932;52.442;16.896;2022-09-12T00:55:18;100501.44;;;11.57;82.33
37020;BME280;22932;52.442;16.896;2022-09-12T00:57:50;100494.02;;;11.56;82.72
37020;BME280;22932;52.442;16.896;2022-09-12T01:00:22;100495.58;;;11.53;82.66
37020;BME280;22932;52.442;16.896;2022-09-12T01:02:54;100498.70;;;11.52;82.78
37020;BME280;22932;52.442;16.896;2022-09-12T01:05:24;100502.41;;;11.51;82.75
37020;BME280;22932;52.442;16.896;2022-09-12T01:07:52;100498.59;;;11.49;83.03
37020;BME280;22932;52.442;16.896;2022-09-12T01:10:21;100497.29;;;11.50;82.81
37020;BME280;22932;52.442;16.896;2022-09-12T01:12:50;100497.52;;;11.51;82.87
37020;BME280;22932;52.442;16.896;2022-09-12T01:15:17;100495.95;;;11.49;82.99
37020;BME280;22932;52.442;16.896;2022-09-12T01:17:57;100498.52;;;11.46;82.91
37020;BME280;22932;52.442;16.896;2022-09-12T01:20:47;100497.72;;;11.45;83.03
37020;BME280;22932;52.442;16.896;2022-09-12T01:23:28;100498.98;;;11.47;83.16
37020;BME280;22932;52.442;16.896;2022-09-12T01:26:08;100498.89;;;11.48;83.33
37020;BME280;22932;52.442;16.896;2022-09-12T01:28:57;100500.54;;;11.50;83.06
37020;BME280;22932;52.442;16.896;2022-09-12T01:31:34;100504.58;;;11.51;82.93
37020;BME280;22932;52.442;16.896;2022-09-12T01:34:17;100504.23;;;11.54;83.37
37020;BME280;22932;52.442;16.896;2022-09-12T01:36:59;100503.03;;;11.58;83.20
37020;BME280;22932;52.442;16.896;2022-09-12T01:39:37;100502.09;;;11.62;83.13
37020;BME280;22932;52.442;16.896;2022-09-12T01:42:13;100506.71;;;11.65;83.07
37020;BME280;22932;52.442;16.896;2022-09-12T01:44:48;100506.32;;;11.67;83.09
37020;BME280;22932;52.442;16.896;2022-09-12T01:47:22;100505.65;;;11.68;83.43
37020;BME280;22932;52.442;16.896;2022-09-12T01:49:58;100511.44;;;11.69;82.82
37020;BME280;22932;52.442;16.896;2022-09-12T01:52:30;100505.18;;;11.71;83.12
37020;BME280;22932;52.442;16.896;2022-09-12T01:55:03;100508.40;;;11.72;82.99
37020;BME280;22932;52.442;16.896;2022-09-12T01:57:36;100508.83;;;11.71;83.06
37020;BME280;22932;52.442;16.896;2022-09-12T02:00:08;100504.98;;;11.72;83.23
37020;BME280;22932;52.442;16.896;2022-09-12T02:02:39;100506.80;;;11.71;83.07
37020;BME280;22932;52.442;16.896;2022-09-12T02:05:15;100505.63;;;11.70;83.04
37020;BME280;22932;52.442;16.896;2022-09-12T02:07:46;100507.98;;;11.70;82.97
37020;BME280;22932;52.442;16.896;2022-09-12T02:10:18;100512.27;;;11.71;83.18
37020;BME280;22932;52.442;16.896;2022-09-12T02:12:50;100512.77;;;11.71;83.33
37020;BME280;22932;52.442;16.896;2022-09-12T02:15:22;100511.65;;;11.72;83.15
37020;BME280;22932;52.442;16.896;2022-09-12T02:17:55;100511.88;;;11.71;83.20
37020;BME280;22932;52.442;16.896;2022-09-12T02:20:26;100513.48;;;11.67;83.15
37020;BME280;22932;52.442;16.896;2022-09-12T02:22:56;100508.27;;;11.65;83.18
37020;BME280;22932;52.442;16.896;2022-09-12T02:25:25;100505.70;;;11.62;83.32
37020;BME280;22932;52.442;16.896;2022-09-12T02:27:59;100507.61;;;11.61;83.35
37020;BME280;22932;52.442;16.896;2022-09-12T02:30:33;100505.42;;;11.59;83.37
37020;BME280;22932;52.442;16.896;2022-09-12T02:33:06;100507.43;;;11.59;83.41
37020;BME280;22932;52.442;16.896;2022-09-12T02:35:45;100509.24;;;11.57;83.59
37020;BME280;22932;52.442;16.896;2022-09-12T02:38:19;100509.84;;;11.54;83.54
37020;BME280;22932;52.442;16.896;2022-09-12T02:40:48;100513.04;;;11.51;83.51
37020;BME280;22932;52.442;16.896;2022-09-12T02:43:15;100512.27;;;11.50;83.68
37020;BME280;22932;52.442;16.896;2022-09-12T02:45:43;100510.95;;;11.48;83.88
37020;BME280;22932;52.442;16.896;2022-09-12T02:48:13;100507.83;;;11.47;83.93
37020;BME280;22932;52.442;16.896;2022-09-12T02:50:43;100510.84;;;11.48;84.06
37020;BME280;22932;52.442;16.896;2022-09-12T02:53:11;100511.81;;;11.46;83.91
37020;BME280;22932;52.442;16.896;2022-09-12T02:55:39;100511.02;;;11.48;84.13
37020;BME280;22932;52.442;16.896;2022-09-12T02:58:11;100508.86;;;11.48;84.14
37020;BME280;22932;52.442;16.896;2022-09-12T03:00:43;100508.85;;;11.48;83.92
37020;BME280;22932;52.442;16.896;2022-09-12T03:03:24;100512.41;;;11.48;84.26
37020;BME280;22932;52.442;16.896;2022-09-12T03:05:57;100513.04;;;11.47;84.19
37020;BME280;22932;52.442;16.896;2022-09-12T03:08:45;100514.11;;;11.47;84.21
37020;BME280;22932;52.442;16.896;2022-09-12T03:11:50;100514.89;;;11.46;84.36
37020;BME280;22932;52.442;16.896;2022-09-12T03:14:37;100510.73;;;11.45;84.30
37020;BME280;22932;52.442;16.896;2022-09-12T03:17:16;100508.06;;;11.44;84.25
37020;BME280;22932;52.442;16.896;2022-09-12T03:19:56;100508.64;;;11.44;84.25
37020;BME280;22932;52.442;16.896;2022-09-12T03:22:29;100512.17;;;11.43;84.41
37020;BME280;22932;52.442;16.896;2022-09-12T03:25:05;100515.92;;;11.41;84.49
37020;BME280;22932;52.442;16.896;2022-09-12T03:27:41;100511.69;;;11.40;84.57
37020;BME280;22932;52.442;16.896;2022-09-12T03:30:12;100512.42;;;11.38;84.54
37020;BME280;22932;52.442;16.896;2022-09-12T03:32:43;100516.64;;;11.37;84.80
37020;BME280;22932;52.442;16.896;2022-09-12T03:35:12;100515.89;;;11.38;84.81
37020;BME280;22932;52.442;16.896;2022-09-12T03:37:40;100514.89;;;11.37;84.98
37020;BME280;22932;52.442;16.896;2022-09-12T03:40:10;100515.83;;;11.38;85.30
37020;BME280;22932;52.442;16.896;2022-09-12T03:42:38;100515.52;;;11.41;85.39
37020;BME280;22932;52.442;16.896;2022-09-12T03:45:07;100520.50;;;11.44;85.49
37020;BME280;22932;52.442;16.896;2022-09-12T03:47:36;100522.84;;;11.44;85.40
37020;BME280;22932;52.442;16.896;2022-09-12T03:50:04;100522.38;;;11.44;85.37
37020;BME280;22932;52.442;16.896;2022-09-12T03:52:32;100519.75;;;11.43;85.55
37020;BME280;22932;52.442;16.896;2022-09-12T03:54:59;100520.04;;;11.41;85.55
37020;BME280;22932;52.442;16.896;2022-09-12T03:57:27;100522.55;;;11.42;85.56
37020;BME280;22932;52.442;16.896;2022-09-12T03:59:54;100521.23;;;11.42;86.12
37020;BME280;22932;52.442;16.896;2022-09-12T04:02:21;100519.72;;;11.45;85.96
37020;BME280;22932;52.442;16.896;2022-09-12T04:04:49;100517.22;;;11.49;86.10
37020;BME280;22932;52.442;16.896;2022-09-12T04:07:16;100522.51;;;11.54;86.14
37020;BME280;22932;52.442;16.896;2022-09-12T04:09:43;100521.42;;;11.56;86.33
37020;BME280;22932;52.442;16.896;2022-09-12T04:12:11;100521.29;;;11.57;86.19
37020;BME280;22932;52.442;16.896;2022-09-12T04:14:39;100519.60;;;11.58;86.18
37020;BME280;22932;52.442;16.896;2022-09-12T04:17:07;100519.45;;;11.59;86.47
37020;BME280;22932;52.442;16.896;2022-09-12T04:19:34;100523.03;;;11.62;86.38
37020;BME280;22932;52.442;16.896;2022-09-12T04:22:02;100519.15;;;11.63;86.67
37020;BME280;22932;52.442;16.896;2022-09-12T04:24:30;100521.83;;;11.63;86.71
37020;BME280;22932;52.442;16.896;2022-09-12T04:26:57;100519.32;;;11.63;86.51
37020;BME280;22932;52.442;16.896;2022-09-12T04:29:24;100519.29;;;11.63;86.79
37020;BME280;22932;52.442;16.896;2022-09-12T04:31:53;100521.85;;;11.64;86.83
37020;BME280;22932;52.442;16.896;2022-09-12T04:34:20;100523.10;;;11.66;87.05
37020;BME280;22932;52.442;16.896;2022-09-12T04:36:49;100522.44;;;11.68;87.27
37020;BME280;22932;52.442;16.896;2022-09-12T04:39:16;100521.87;;;11.70;87.33
37020;BME280;22932;52.442;16.896;2022-09-12T04:41:43;100522.14;;;11.75;87.46
37020;BME280;22932;52.442;16.896;2022-09-12T04:44:13;100525.36;;;11.77;87.48
37020;BME280;22932;52.442;16.896;2022-09-12T04:46:42;100527.75;;;11.79;87.53
37020;BME280;22932;52.442;16.896;2022-09-12T04:49:11;100528.00;;;11.80;87.41
37020;BME280;22932;52.442;16.896;2022-09-12T04:51:39;100524.93;;;11.82;87.50
37020;BME280;22932;52.442;16.896;2022-09-12T04:54:10;100529.33;;;11.85;87.76
37020;BME280;22932;52.442;16.896;2022-09-12T04:56:38;100527.04;;;11.86;87.71
37020;BME280;22932;52.442;16.896;2022-09-12T04:59:07;100534.12;;;11.88;87.85
37020;BME280;22932;52.442;16.896;2022-09-12T05:01:35;100526.36;;;11.90;87.79
37020;BME280;22932;52.442;16.896;2022-09-12T05:04:03;100526.70;;;11.94;88.03
37020;BME280;22932;52.442;16.896;2022-09-12T05:06:32;100527.16;;;11.97;88.01
37020;BME280;22932;52.442;16.896;2022-09-12T05:09:02;100529.83;;;12.01;88.08
37020;BME280;22932;52.442;16.896;2022-09-12T05:11:32;100534.25;;;12.02;87.94
37020;BME280;22932;52.442;16.896;2022-09-12T05:14:00;100538.14;;;12.05;88.22
37020;BME280;22932;52.442;16.896;2022-09-12T05:16:28;100538.04;;;12.05;87.99
37020;BME280;22932;52.442;16.896;2022-09-12T05:18:57;100542.01;;;12.07;88.06
37020;BME280;22932;52.442;16.896;2022-09-12T05:21:25;100543.55;;;12.08;88.05
37020;BME280;22932;52.442;16.896;2022-09-12T05:23:54;100542.77;;;12.07;88.07
37020;BME280;22932;52.442;16.896;2022-09-12T05:26:22;100545.23;;;12.08;88.23
37020;BME280;22932;52.442;16.896;2022-09-12T05:28:51;100544.66;;;12.08;88.35
37020;BME280;22932;52.442;16.896;2022-09-12T05:31:20;100548.76;;;12.09;88.41
37020;BME280;22932;52.442;16.896;2022-09-12T10:12:27;100566.10;;;19.85;64.59
37020;BME280;22932;52.442;16.896;2022-09-12T10:14:58;100569.05;;;19.85;62.77
37020;BME280;22932;52.442;16.896;2022-09-12T10:17:29;100568.56;;;19.83;62.83
37020;BME280;22932;52.442;16.896;2022-09-12T10:19:58;100569.35;;;19.89;63.06
37020;BME280;22932;52.442;16.896;2022-09-12T10:22:27;100567.91;;;19.76;62.71
37020;BME280;22932;52.442;16.896;2022-09-12T11:17:10;100536.05;;;20.49;61.03
37020;BME280;22932;52.442;16.896;2022-09-12T11:20:19;100541.55;;;20.70;60.11
37020;BME280;22932;52.442;16.896;2022-09-12T11:23:07;100534.17;;;20.92;60.69
37020;BME280;22932;52.442;16.896;2022-09-12T11:25:44;100535.81;;;21.25;59.15
37020;BME280;22932;52.442;16.896;2022-09-12T11:28:29;100536.58;;;21.24;57.09
37020;BME280;22932;52.442;16.896;2022-09-12T11:31:20;100532.52;;;21.34;57.45
37020;BME280;22932;52.442;16.896;2022-09-12T11:33:50;100530.48;;;21.48;57.28
37020;BME280;22932;52.442;16.896;2022-09-12T11:36:32;100531.94;;;21.59;57.48
37020;BME280;22932;52.442;16.896;2022-09-12T11:39:11;100527.82;;;21.69;56.12
37020;BME280;22932;52.442;16.896;2022-09-12T11:41:41;100522.52;;;21.61;54.57
37020;BME280;22932;52.442;16.896;2022-09-12T11:44:16;100527.23;;;21.49;55.81
37020;BME280;22932;52.442;16.896;2022-09-12T11:46:46;100532.53;;;21.40;54.55
37020;BME280;22932;52.442;16.896;2022-09-12T11:49:23;100533.40;;;21.11;53.39
37020;BME280;22932;52.442;16.896;2022-09-12T11:51:56;100539.10;;;20.80;53.44
37020;BME280;22932;52.442;16.896;2022-09-12T11:54:31;100538.06;;;20.60;54.67
37020;BME280;22932;52.442;16.896;2022-09-12T11:57:07;100538.63;;;20.46;55.04
37020;BME280;22932;52.442;16.896;2022-09-12T11:59:43;100540.58;;;20.39;55.67
37020;BME280;22932;52.442;16.896;2022-09-12T12:02:16;100540.27;;;20.30;55.86
37020;BME280;22932;52.442;16.896;2022-09-12T12:04:58;100538.92;;;20.20;55.67
37020;BME280;22932;52.442;16.896;2022-09-12T12:07:32;100536.37;;;20.07;55.74
37020;BME280;22932;52.442;16.896;2022-09-12T12:10:05;100538.04;;;19.98;55.56
37020;BME280;22932;52.442;16.896;2022-09-12T12:12:33;100532.17;;;19.83;55.25
37020;BME280;22932;52.442;16.896;2022-09-12T12:15:01;100536.79;;;19.67;55.72
37020;BME280;22932;52.442;16.896;2022-09-12T12:17:28;100535.05;;;19.59;56.11
37020;BME280;22932;52.442;16.896;2022-09-12T12:20:00;100535.14;;;19.48;55.97
37020;BME280;22932;52.442;16.896;2022-09-12T12:22:30;100534.94;;;19.41;56.72
37020;BME280;22932;52.442;16.896;2022-09-12T12:25:06;100537.54;;;19.39;56.93
37020;BME280;22932;52.442;16.896;2022-09-12T12:27:49;100541.68;;;19.33;56.90
37020;BME280;22932;52.442;16.896;2022-09-12T12:33:52;100538.23;;;19.25;57.83
37020;BME280;22932;52.442;16.896;2022-09-12T12:36:39;100533.30;;;19.34;58.29
37020;BME280;22932;52.442;16.896;2022-09-12T12:46:05;100532.98;;;19.19;56.70
37020;BME280;22932;52.442;16.896;2022-09-12T12:48:50;100528.21;;;19.19;57.25
37020;BME280;22932;52.442;16.896;2022-09-12T12:51:40;100523.59;;;19.24;57.28
37020;BME280;22932;52.442;16.896;2022-09-12T12:54:52;100517.02;;;19.33;57.89
37020;BME280;22932;52.442;16.896;2022-09-12T12:57:47;100515.17;;;19.44;57.70
37020;BME280;22932;52.442;16.896;2022-09-12T13:00:31;100512.73;;;19.49;57.24
37020;BME280;22932;52.442;16.896;2022-09-12T13:03:05;100515.55;;;19.52;57.12
37020;BME280;22932;52.442;16.896;2022-09-12T13:05:40;100512.11;;;19.51;56.54
37020;BME280;22932;52.442;16.896;2022-09-12T13:08:27;100511.50;;;19.47;56.27
37020;BME280;22932;52.442;16.896;2022-09-12T13:11:00;100507.63;;;19.44;56.83
37020;BME280;22932;52.442;16.896;2022-09-12T13:13:35;100507.21;;;19.45;56.76
37020;BME280;22932;52.442;16.896;2022-09-12T13:16:05;100508.80;;;19.40;55.71
37020;BME280;22932;52.442;16.896;2022-09-12T13:18:43;100510.97;;;19.29;55.14
37020;BME280;22932;52.442;16.896;2022-09-12T13:21:15;100507.06;;;19.19;55.42
37020;BME280;22932;52.442;16.896;2022-09-12T13:23:44;100509.17;;;19.08;55.46
37020;BME280;22932;52.442;16.896;2022-09-12T13:26:19;100509.58;;;19.02;56.17
37020;BME280;22932;52.442;16.896;2022-09-12T13:28:50;100508.02;;;18.95;55.65
37020;BME280;22932;52.442;16.896;2022-09-12T13:31:34;100511.45;;;18.83;55.99
37020;BME280;22932;52.442;16.896;2022-09-12T13:34:04;100507.66;;;18.76;56.81
37020;BME280;22932;52.442;16.896;2022-09-12T13:36:54;100504.03;;;18.75;56.91
37020;BME280;22932;52.442;16.896;2022-09-12T13:39:26;100503.94;;;18.71;57.28
37020;BME280;22932;52.442;16.896;2022-09-12T13:42:19;100505.44;;;18.66;57.55
37020;BME280;22932;52.442;16.896;2022-09-12T13:44:53;100509.27;;;18.60;57.72
37020;BME280;22932;52.442;16.896;2022-09-12T13:47:29;100509.65;;;18.57;57.80
37020;BME280;22932;52.442;16.896;2022-09-12T13:49:58;100507.34;;;18.54;58.01
37020;BME280;22932;52.442;16.896;2022-09-12T13:52:29;100502.67;;;18.49;58.02
37020;BME280;22932;52.442;16.896;2022-09-12T13:55:04;100499.52;;;18.43;58.00
37020;BME280;22932;52.442;16.896;2022-09-12T13:57:36;100500.55;;;18.39;58.13
37020;BME280;22932;52.442;16.896;2022-09-12T14:00:09;100497.90;;;18.38;58.25
37020;BME280;22932;52.442;16.896;2022-09-12T14:02:40;100494.13;;;18.34;58.12
37020;BME280;22932;52.442;16.896;2022-09-12T14:05:16;100496.83;;;18.28;58.42
37020;BME280;22932;52.442;16.896;2022-09-12T14:07:53;100493.73;;;18.25;58.64
37020;BME280;22932;52.442;16.896;2022-09-12T14:10:27;100493.50;;;18.30;59.05
37020;BME280;22932;52.442;16.896;2022-09-12T14:12:56;100492.70;;;18.42;59.19
37020;BME280;22932;52.442;16.896;2022-09-12T14:15:26;100491.76;;;18.57;59.74
37020;BME280;22932;52.442;16.896;2022-09-12T14:17:57;100489.25;;;18.73;59.68
37020;BME280;22932;52.442;16.896;2022-09-12T14:20:28;100490.63;;;18.92;59.56
37020;BME280;22932;52.442;16.896;2022-09-12T14:23:04;100485.59;;;19.08;59.49
37020;BME280;22932;52.442;16.896;2022-09-12T14:25:39;100483.97;;;19.25;59.15
37020;BME280;22932;52.442;16.896;2022-09-12T14:28:13;100482.41;;;19.39;58.54
37020;BME280;22932;52.442;16.896;2022-09-12T14:31:00;100477.58;;;19.48;58.05
37020;BME280;22932;52.442;16.896;2022-09-12T14:33:45;100476.64;;;19.57;57.87
37020;BME280;22932;52.442;16.896;2022-09-12T14:36:21;100476.84;;;19.67;57.88
37020;BME280;22932;52.442;16.896;2022-09-12T14:38:53;100474.77;;;19.75;57.42
37020;BME280;22932;52.442;16.896;2022-09-12T14:41:25;100469.73;;;19.80;56.51
37020;BME280;22932;52.442;16.896;2022-09-12T14:43:58;100471.64;;;19.81;55.74
37020;BME280;22932;52.442;16.896;2022-09-12T14:46:31;100468.58;;;19.79;55.92
37020;BME280;22932;52.442;16.896;2022-09-12T14:49:06;100469.67;;;19.73;55.49
37020;BME280;22932;52.442;16.896;2022-09-12T14:51:39;100469.37;;;19.64;55.56
37020;BME280;22932;52.442;16.896;2022-09-12T14:54:35;100475.40;;;19.60;55.78
37020;BME280;22932;52.442;16.896;2022-09-12T14:57:27;100472.15;;;19.58;56.26
37020;BME280;22932;52.442;16.896;2022-09-12T15:00:16;100466.30;;;19.61;55.76
37020;BME280;22932;52.442;16.896;2022-09-12T15:02:47;100470.09;;;19.60;55.23
37020;BME280;22932;52.442;16.896;2022-09-12T15:05:20;100465.52;;;19.53;55.40
37020;BME280;22932;52.442;16.896;2022-09-12T15:07:56;100465.75;;;19.50;55.69
37020;BME280;22932;52.442;16.896;2022-09-12T15:10:26;100469.28;;;19.49;55.91
37020;BME280;22932;52.442;16.896;2022-09-12T15:13:18;100468.20;;;19.46;55.42
37020;BME280;22932;52.442;16.896;2022-09-12T15:15:49;100466.40;;;19.43;55.04
37020;BME280;22932;52.442;16.896;2022-09-12T15:18:17;100470.16;;;19.40;55.06
37020;BME280;22932;52.442;16.896;2022-09-12T15:20:47;100471.33;;;19.38;55.04
37020;BME280;22932;52.442;16.896;2022-09-12T15:23:19;100471.91;;;19.38;55.15
37020;BME280;22932;52.442;16.896;2022-09-12T15:25:47;100471.86;;;19.41;55.35
37020;BME280;22932;52.442;16.896;2022-09-12T15:28:19;100471.13;;;19.43;55.41
37020;BME280;22932;52.442;16.896;2022-09-12T15:30:48;100468.40;;;19.46;55.61
37020;BME280;22932;52.442;16.896;2022-09-12T15:33:18;100471.54;;;19.51;55.77
37020;BME280;22932;52.442;16.896;2022-09-12T15:35:47;100473.50;;;19.56;56.16
37020;BME280;22932;52.442;16.896;2022-09-12T15:38:15;100473.66;;;19.55;56.62
37020;BME280;22932;52.442;16.896;2022-09-12T15:40:50;100474.27;;;19.48;56.59
37020;BME280;22932;52.442;16.896;2022-09-12T15:43:19;100476.23;;;19.40;56.94
37020;BME280;22932;52.442;16.896;2022-09-12T15:45:48;100474.11;;;19.34;57.14
37020;BME280;22932;52.442;16.896;2022-09-12T15:48:18;100480.14;;;19.22;57.47
37020;BME280;22932;52.442;16.896;2022-09-12T15:50:47;100481.92;;;19.11;57.77
37020;BME280;22932;52.442;16.896;2022-09-12T15:53:16;100483.52;;;19.00;58.02
37020;BME280;22932;52.442;16.896;2022-09-12T15:55:44;100486.95;;;18.87;58.26
37020;BME280;22932;52.442;16.896;2022-09-12T15:58:12;100487.54;;;18.80;58.76
37020;BME280;22932;52.442;16.896;2022-09-12T16:00:40;100485.42;;;18.75;59.34
37020;BME280;22932;52.442;16.896;2022-09-12T16:03:18;100485.02;;;18.72;59.30
37020;BME280;22932;52.442;16.896;2022-09-12T16:05:46;100481.64;;;18.65;59.37
37020;BME280;22932;52.442;16.896;2022-09-12T16:08:14;100479.91;;;18.59;59.78
37020;BME280;22932;52.442;16.896;2022-09-12T16:10:44;100481.05;;;18.52;59.96
37020;BME280;22932;52.442;16.896;2022-09-12T16:13:13;100479.91;;;18.46;60.18
37020;BME280;22932;52.442;16.896;2022-09-12T16:15:40;100480.42;;;18.40;60.39
37020;BME280;22932;52.442;16.896;2022-09-12T16:18:08;100479.61;;;18.36;60.81
37020;BME280;22932;52.442;16.896;2022-09-12T16:20:37;100475.86;;;18.34;60.73
37020;BME280;22932;52.442;16.896;2022-09-12T16:23:04;100475.79;;;18.30;60.91
37020;BME280;22932;52.442;16.896;2022-09-12T16:25:32;100475.14;;;18.26;61.19
37020;BME280;22932;52.442;16.896;2022-09-12T16:27:59;100476.18;;;18.25;61.45
37020;BME280;22932;52.442;16.896;2022-09-12T16:30:27;100473.86;;;18.25;61.58
37020;BME280;22932;52.442;16.896;2022-09-12T16:32:54;100474.00;;;18.24;61.60
37020;BME280;22932;52.442;16.896;2022-09-12T16:35:22;100473.23;;;18.24;61.79
37020;BME280;22932;52.442;16.896;2022-09-12T16:37:49;100471.23;;;18.24;62.01
37020;BME280;22932;52.442;16.896;2022-09-12T16:40:17;100468.50;;;18.24;62.12
37020;BME280;22932;52.442;16.896;2022-09-12T16:42:45;100467.26;;;18.22;62.33
37020;BME280;22932;52.442;16.896;2022-09-12T16:45:13;100465.03;;;18.20;62.34
37020;BME280;22932;52.442;16.896;2022-09-12T22:15:34;100400.97;;;14.29;73.14
37020;BME280;22932;52.442;16.896;2022-09-12T22:18:01;100399.94;;;14.25;73.16
37020;BME280;22932;52.442;16.896;2022-09-12T22:20:29;100397.66;;;14.23;73.44
37020;BME280;22932;52.442;16.896;2022-09-12T22:22:56;100393.66;;;14.21;73.49
37020;BME280;22932;52.442;16.896;2022-09-12T22:25:42;100390.57;;;14.19;73.42
37020;BME280;22932;52.442;16.896;2022-09-12T22:28:10;100387.91;;;14.17;73.52
37020;BME280;22932;52.442;16.896;2022-09-12T22:30:37;100385.48;;;14.13;73.30
37020;BME280;22932;52.442;16.896;2022-09-12T22:33:04;100385.64;;;14.10;73.59
37020;BME280;22932;52.442;16.896;2022-09-12T22:35:31;100384.83;;;14.07;73.54
37020;BME280;22932;52.442;16.896;2022-09-12T22:37:59;100382.56;;;14.03;73.78
37020;BME280;22932;52.442;16.896;2022-09-12T22:40:26;100380.38;;;14.00;73.74
37020;BME280;22932;52.442;16.896;2022-09-12T22:42:54;100375.83;;;13.97;73.88
37020;BME280;22932;52.442;16.896;2022-09-12T22:45:21;100368.17;;;13.95;73.96
37020;BME280;22932;52.442;16.896;2022-09-12T22:47:48;100363.73;;;13.93;74.30
37020;BME280;22932;52.442;16.896;2022-09-12T22:50:16;100360.52;;;13.92;74.49
37020;BME280;22932;52.442;16.896;2022-09-12T22:52:43;100361.00;;;13.91;74.54
37020;BME280;22932;52.442;16.896;2022-09-12T22:55:11;100363.41;;;13.89;74.56
37020;BME280;22932;52.442;16.896;2022-09-12T22:57:38;100362.50;;;13.87;74.74
37020;BME280;22932;52.442;16.896;2022-09-12T23:00:08;100356.45;;;13.85;74.76
37020;BME280;22932;52.442;16.896;2022-09-12T23:02:36;100355.85;;;13.82;74.75
37020;BME280;22932;52.442;16.896;2022-09-12T23:05:04;100356.31;;;13.78;74.77
37020;BME280;22932;52.442;16.896;2022-09-12T23:07:32;100351.44;;;13.74;75.16
37020;BME280;22932;52.442;16.896;2022-09-12T23:09:59;100349.33;;;13.71;75.08
37020;BME280;22932;52.442;16.896;2022-09-12T23:12:27;100349.45;;;13.69;75.11
37020;BME280;22932;52.442;16.896;2022-09-12T23:14:54;100347.29;;;13.67;74.98
37020;BME280;22932;52.442;16.896;2022-09-12T23:17:21;100344.61;;;13.61;74.82
37020;BME280;22932;52.442;16.896;2022-09-12T23:19:48;100343.27;;;13.55;74.83
37020;BME280;22932;52.442;16.896;2022-09-12T23:22:16;100339.33;;;13.55;74.95
37020;BME280;22932;52.442;16.896;2022-09-12T23:24:43;100337.44;;;13.56;75.39
37020;BME280;22932;52.442;16.896;2022-09-12T23:27:10;100336.80;;;13.57;75.23
37020;BME280;22932;52.442;16.896;2022-09-12T23:29:38;100335.95;;;13.58;75.37
37020;BME280;22932;52.442;16.896;2022-09-12T23:32:06;100333.01;;;13.58;75.25
37020;BME280;22932;52.442;16.896;2022-09-12T23:34:33;100331.10;;;13.58;75.15
37020;BME280;22932;52.442;16.896;2022-09-12T23:37:00;100326.17;;;13.56;75.10
37020;BME280;22932;52.442;16.896;2022-09-12T23:39:28;100327.67;;;13.56;75.29
37020;BME280;22932;52.442;16.896;2022-09-12T23:41:57;100324.73;;;13.53;75.22
37020;BME280;22932;52.442;16.896;2022-09-12T23:44:24;100320.30;;;13.48;75.14
37020;BME280;22932;52.442;16.896;2022-09-12T23:46:52;100318.25;;;13.45;75.43
37020;BME280;22932;52.442;16.896;2022-09-12T23:49:19;100312.36;;;13.43;75.58
37020;BME280;22932;52.442;16.896;2022-09-12T23:51:46;100317.23;;;13.43;75.59
37020;BME280;22932;52.442;16.896;2022-09-12T23:54:14;100315.54;;;13.44;75.78
37020;BME280;22932;52.442;16.896;2022-09-12T23:56:41;100305.05;;;13.44;75.73
37020;BME280;22932;52.442;16.896;2022-09-12T23:59:08;100307.95;;;13.44;75.73
